sensor_id;sensor_type;location;lat;lon;timestamp;pressure;altitude;pressure_sealevel;temperature
64947;BMP280;51469;52.150;4.682;2023-03-14T00:01:30;99017.50;;;16.64
64947;BMP280;51469;52.150;4.682;2023-03-14T00:03:56;99013.91;;;16.73
64947;BMP280;51469;52.150;4.682;2023-03-14T00:06:22;99003.34;;;16.62
64947;BMP280;51469;52.150;4.682;2023-03-14T00:08:48;99010.56;;;16.60
64947;BMP280;51469;52.150;4.682;2023-03-14T00:11:16;99019.31;;;16.76
64947;BMP280;51469;52.150;4.682;2023-03-14T00:13:42;99022.09;;;16.85
64947;BMP280;51469;52.150;4.682;2023-03-14T00:16:12;99021.03;;;16.92
64947;BMP280;51469;52.150;4.682;2023-03-14T00:18:38;99022.72;;;16.80
64947;BMP280;51469;52.150;4.682;2023-03-14T00:21:05;99013.47;;;16.83
64947;BMP280;51469;52.150;4.682;2023-03-14T00:23:32;99005.47;;;16.58
64947;BMP280;51469;52.150;4.682;2023-03-14T00:26:01;99011.31;;;16.78
64947;BMP280;51469;52.150;4.682;2023-03-14T00:28:27;99021.78;;;16.56
64947;BMP280;51469;52.150;4.682;2023-03-14T00:30:52;99018.09;;;16.68
64947;BMP280;51469;52.150;4.682;2023-03-14T00:33:18;99017.50;;;16.64
64947;BMP280;51469;52.150;4.682;2023-03-14T00:35:43;99014.72;;;16.73
64947;BMP280;51469;52.150;4.682;2023-03-14T00:38:09;99019.66;;;16.69
64947;BMP280;51469;52.150;4.682;2023-03-14T00:40:38;99013.34;;;16.51
64947;BMP280;51469;52.150;4.682;2023-03-14T00:43:04;99004.28;;;16.59
64947;BMP280;51469;52.150;4.682;2023-03-14T00:45:29;99009.47;;;16.48
64947;BMP280;51469;52.150;4.682;2023-03-14T00:47:55;99013.34;;;16.51
64947;BMP280;51469;52.150;4.682;2023-03-14T00:50:20;99022.41;;;16.42
64947;BMP280;51469;52.150;4.682;2023-03-14T00:52:45;99019.31;;;16.58
64947;BMP280;51469;52.150;4.682;2023-03-14T00:55:13;99024.88;;;16.40
64947;BMP280;51469;52.150;4.682;2023-03-14T00:57:39;99034.41;;;16.57
64947;BMP280;51469;52.150;4.682;2023-03-14T01:00:05;99018.88;;;16.33
64947;BMP280;51469;52.150;4.682;2023-03-14T01:02:31;99040.97;;;16.15
64947;BMP280;51469;52.150;4.682;2023-03-14T01:04:57;99052.50;;;16.22
64947;BMP280;51469;52.150;4.682;2023-03-14T01:07:22;99039.16;;;16.21
64947;BMP280;51469;52.150;4.682;2023-03-14T01:09:51;99028.84;;;16.30
64947;BMP280;51469;52.150;4.682;2023-03-14T01:12:17;99022.56;;;16.39
64947;BMP280;51469;52.150;4.682;2023-03-14T01:14:42;99019.94;;;16.44
64947;BMP280;51469;52.150;4.682;2023-03-14T01:17:07;99016.41;;;16.53
64947;BMP280;51469;52.150;4.682;2023-03-14T01:19:33;98999.34;;;16.45
64947;BMP280;51469;52.150;4.682;2023-03-14T01:21:58;98994.09;;;16.47
64947;BMP280;51469;52.150;4.682;2023-03-14T01:24:23;99000.91;;;16.46
64947;BMP280;51469;52.150;4.682;2023-03-14T01:26:49;99011.78;;;16.50
64947;BMP280;51469;52.150;4.682;2023-03-14T01:29:14;99021.50;;;16.36
64947;BMP280;51469;52.150;4.682;2023-03-14T01:31:39;99016.06;;;16.24
64947;BMP280;51469;52.150;4.682;2023-03-14T01:34:05;99034.34;;;16.12
64947;BMP280;51469;52.150;4.682;2023-03-14T01:36:30;99033.97;;;15.92
64947;BMP280;51469;52.150;4.682;2023-03-14T01:38:55;99021.56;;;16.06
64947;BMP280;51469;52.150;4.682;2023-03-14T01:41:23;99026.97;;;16.09
64947;BMP280;51469;52.150;4.682;2023-03-14T01:43:49;99014.09;;;16.24
64947;BMP280;51469;52.150;4.682;2023-03-14T01:46:39;99033.19;;;16.31
64947;BMP280;51469;52.150;4.682;2023-03-14T01:49:22;99016.69;;;16.28
64947;BMP280;51469;52.150;4.682;2023-03-14T01:52:08;99004.69;;;16.13
64947;BMP280;51469;52.150;4.682;2023-03-14T01:54:55;99009.47;;;16.21
64947;BMP280;51469;52.150;4.682;2023-03-14T01:57:27;98991.66;;;16.13
64947;BMP280;51469;52.150;4.682;2023-03-14T01:59:58;98999.75;;;16.17
64947;BMP280;51469;52.150;4.682;2023-03-14T02:02:26;98995.31;;;16.28
64947;BMP280;51469;52.150;4.682;2023-03-14T02:04:52;98991.63;;;16.22
64947;BMP280;51469;52.150;4.682;2023-03-14T02:07:33;98955.34;;;15.84
64947;BMP280;51469;52.150;4.682;2023-03-14T02:10:01;98988.19;;;15.82
64947;BMP280;51469;52.150;4.682;2023-03-14T02:12:26;98979.31;;;15.96
64947;BMP280;51469;52.150;4.682;2023-03-14T02:14:52;98982.41;;;15.98
64947;BMP280;51469;52.150;4.682;2023-03-14T02:17:19;98962.44;;;16.03
64947;BMP280;51469;52.150;4.682;2023-03-14T02:22:40;98981.78;;;16.03
64947;BMP280;51469;52.150;4.682;2023-03-14T02:27:41;98962.44;;;16.21
64947;BMP280;51469;52.150;4.682;2023-03-14T02:30:13;98957.19;;;16.05
64947;BMP280;51469;52.150;4.682;2023-03-14T02:32:41;98963.81;;;16.08
64947;BMP280;51469;52.150;4.682;2023-03-14T02:35:11;98976.91;;;16.25
64947;BMP280;51469;52.150;4.682;2023-03-14T02:40:11;98976.25;;;16.03
64947;BMP280;51469;52.150;4.682;2023-03-14T02:42:37;98958.75;;;16.15
64947;BMP280;51469;52.150;4.682;2023-03-14T02:47:35;98956.28;;;16.17
64947;BMP280;51469;52.150;4.682;2023-03-14T02:50:09;98962.75;;;16.14
64947;BMP280;51469;52.150;4.682;2023-03-14T02:52:34;98936.94;;;16.08
64947;BMP280;51469;52.150;4.682;2023-03-14T02:55:00;98953.53;;;16.08
64947;BMP280;51469;52.150;4.682;2023-03-14T02:57:25;98962.91;;;16.11
64947;BMP280;51469;52.150;4.682;2023-03-14T02:59:51;98966.09;;;15.91
64947;BMP280;51469;52.150;4.682;2023-03-14T03:02:16;98959.94;;;15.87
64947;BMP280;51469;52.150;4.682;2023-03-14T03:04:41;98957.63;;;15.86
64947;BMP280;51469;52.150;4.682;2023-03-14T03:07:07;98961.94;;;15.87
64947;BMP280;51469;52.150;4.682;2023-03-14T03:09:32;98955.03;;;15.91
64947;BMP280;51469;52.150;4.682;2023-03-14T03:11:58;98966.69;;;15.95
64947;BMP280;51469;52.150;4.682;2023-03-14T03:14:23;98951.66;;;15.96
64947;BMP280;51469;52.150;4.682;2023-03-14T03:16:49;98950.91;;;16.05
64947;BMP280;51469;52.150;4.682;2023-03-14T03:19:14;98950.31;;;16.10
64947;BMP280;51469;52.150;4.682;2023-03-14T03:21:41;98946.16;;;16.14
64947;BMP280;51469;52.150;4.682;2023-03-14T03:24:06;98938.59;;;16.06
64947;BMP280;51469;52.150;4.682;2023-03-14T03:26:34;98935.72;;;16.18
64947;BMP280;51469;52.150;4.682;2023-03-14T03:28:59;98940.00;;;16.10
64947;BMP280;51469;52.150;4.682;2023-03-14T03:31:25;98928.94;;;16.10
64947;BMP280;51469;52.150;4.682;2023-03-14T03:33:50;98927.72;;;16.20
64947;BMP280;51469;52.150;4.682;2023-03-14T03:36:20;98926.19;;;16.19
64947;BMP280;51469;52.150;4.682;2023-03-14T03:38:46;98920.94;;;16.12
64947;BMP280;51469;52.150;4.682;2023-03-14T03:41:11;98915.41;;;16.12
64947;BMP280;51469;52.150;4.682;2023-03-14T03:43:36;98917.59;;;16.26
64947;BMP280;51469;52.150;4.682;2023-03-14T03:46:06;98920.63;;;16.28
64947;BMP280;51469;52.150;4.682;2023-03-14T03:48:32;98933.84;;;16.06
64947;BMP280;51469;52.150;4.682;2023-03-14T03:50:57;98920.81;;;16.16
64947;BMP280;51469;52.150;4.682;2023-03-14T03:53:23;98925.25;;;16.22
64947;BMP280;51469;52.150;4.682;2023-03-14T03:55:48;98922.19;;;16.20
64947;BMP280;51469;52.150;4.682;2023-03-14T03:58:14;98927.09;;;16.34
64947;BMP280;51469;52.150;4.682;2023-03-14T04:00:39;98931.06;;;15.97
64947;BMP280;51469;52.150;4.682;2023-03-14T04:03:04;98930.19;;;16.18
64947;BMP280;51469;52.150;4.682;2023-03-14T04:05:30;98932.47;;;16.11
64947;BMP280;51469;52.150;4.682;2023-03-14T04:07:55;98953.84;;;16.19
64947;BMP280;51469;52.150;4.682;2023-03-14T04:10:24;98937.06;;;16.14
64947;BMP280;51469;52.150;4.682;2023-03-14T04:12:49;98924.81;;;16.15
64947;BMP280;51469;52.150;4.682;2023-03-14T04:15:14;98936.31;;;16.22
64947;BMP280;51469;52.150;4.682;2023-03-14T04:17:40;98955.72;;;16.31
64947;BMP280;51469;52.150;4.682;2023-03-14T04:20:07;98945.03;;;16.12
64947;BMP280;51469;52.150;4.682;2023-03-14T04:22:35;98945.50;;;16.01
64947;BMP280;51469;52.150;4.682;2023-03-14T04:25:01;98947.00;;;15.75
64947;BMP280;51469;52.150;4.682;2023-03-14T04:27:28;98947.59;;;15.61
64947;BMP280;51469;52.150;4.682;2023-03-14T04:29:54;98948.44;;;15.49
64947;BMP280;51469;52.150;4.682;2023-03-14T04:32:19;98954.47;;;15.26
64947;BMP280;51469;52.150;4.682;2023-03-14T04:34:45;98949.28;;;15.19
64947;BMP280;51469;52.150;4.682;2023-03-14T04:37:10;98950.13;;;15.07
64947;BMP280;51469;52.150;4.682;2023-03-14T04:39:35;98948.34;;;15.22
64947;BMP280;51469;52.150;4.682;2023-03-14T04:42:01;98951.06;;;14.91
64947;BMP280;51469;52.150;4.682;2023-03-14T04:44:26;98947.63;;;15.00
64947;BMP280;51469;52.150;4.682;2023-03-14T04:46:51;98945.53;;;15.13
64947;BMP280;51469;52.150;4.682;2023-03-14T04:49:17;98947.00;;;14.96
64947;BMP280;51469;52.150;4.682;2023-03-14T04:51:42;98934.66;;;14.88
64947;BMP280;51469;52.150;4.682;2023-03-14T04:54:07;98928.75;;;14.77
64947;BMP280;51469;52.150;4.682;2023-03-14T04:56:33;98918.69;;;14.83
64947;BMP280;51469;52.150;4.682;2023-03-14T04:58:58;98925.50;;;14.91
64947;BMP280;51469;52.150;4.682;2023-03-14T05:01:24;98929.53;;;14.99
64947;BMP280;51469;52.150;4.682;2023-03-14T05:03:49;98930.34;;;14.87
64947;BMP280;51469;52.150;4.682;2023-03-14T05:06:14;98931.97;;;14.97
64947;BMP280;51469;52.150;4.682;2023-03-14T05:08:40;98929.66;;;14.96
64947;BMP280;51469;52.150;4.682;2023-03-14T05:11:05;98927.34;;;14.94
64947;BMP280;51469;52.150;4.682;2023-03-14T05:13:31;98920.66;;;15.04
64947;BMP280;51469;52.150;4.682;2023-03-14T05:16:07;98926.44;;;14.97
64947;BMP280;51469;52.150;4.682;2023-03-14T05:18:32;98924.91;;;14.96
64947;BMP280;51469;52.150;4.682;2023-03-14T05:20:58;98939.66;;;15.02
64947;BMP280;51469;52.150;4.682;2023-03-14T05:23:24;98921.56;;;15.01
64947;BMP280;51469;52.150;4.682;2023-03-14T05:25:49;98920.38;;;15.11
64947;BMP280;51469;52.150;4.682;2023-03-14T05:28:14;98925.91;;;15.11
64947;BMP280;51469;52.150;4.682;2023-03-14T05:30:40;98932.88;;;14.94
64947;BMP280;51469;52.150;4.682;2023-03-14T05:33:05;98933.19;;;14.96
64947;BMP280;51469;52.150;4.682;2023-03-14T05:35:30;98960.94;;;14.71
64947;BMP280;51469;52.150;4.682;2023-03-14T05:37:56;98966.97;;;14.78
64947;BMP280;51469;52.150;4.682;2023-03-14T05:40:21;98997.19;;;14.14
64947;BMP280;51469;52.150;4.682;2023-03-14T05:42:47;98996.38;;;13.92
64947;BMP280;51469;52.150;4.682;2023-03-14T05:45:12;98999.75;;;13.96
64947;BMP280;51469;52.150;4.682;2023-03-14T05:47:37;99008.81;;;13.71
64947;BMP280;51469;52.150;4.682;2023-03-14T05:50:03;99018.63;;;13.60
64947;BMP280;51469;52.150;4.682;2023-03-14T05:52:28;99023.16;;;13.66
64947;BMP280;51469;52.150;4.682;2023-03-14T05:54:54;99032.47;;;13.56
64947;BMP280;51469;52.150;4.682;2023-03-14T05:57:20;99039.47;;;13.73
64947;BMP280;51469;52.150;4.682;2023-03-14T05:59:45;99047.59;;;13.64
64947;BMP280;51469;52.150;4.682;2023-03-14T06:02:10;99044.44;;;13.66
64947;BMP280;51469;52.150;4.682;2023-03-14T06:04:36;99050.03;;;13.75
64947;BMP280;51469;52.150;4.682;2023-03-14T06:07:01;99065.69;;;13.78
64947;BMP280;51469;52.150;4.682;2023-03-14T06:09:26;99066.69;;;13.71
64947;BMP280;51469;52.150;4.682;2023-03-14T06:11:52;99065.69;;;13.65
64947;BMP280;51469;52.150;4.682;2023-03-14T06:14:17;99068.53;;;13.74
64947;BMP280;51469;52.150;4.682;2023-03-14T06:16:43;99079.34;;;13.69
64947;BMP280;51469;52.150;4.682;2023-03-14T06:19:08;99080.63;;;13.52
64947;BMP280;51469;52.150;4.682;2023-03-14T06:21:34;99082.16;;;13.40
64947;BMP280;51469;52.150;4.682;2023-03-14T06:23:59;99087.22;;;13.29
64947;BMP280;51469;52.150;4.682;2023-03-14T06:26:25;99117.03;;;13.31
64947;BMP280;51469;52.150;4.682;2023-03-14T06:28:50;99105.34;;;13.27
64947;BMP280;51469;52.150;4.682;2023-03-14T06:31:16;99115.22;;;13.40
64947;BMP280;51469;52.150;4.682;2023-03-14T06:33:41;99123.22;;;13.35
64947;BMP280;51469;52.150;4.682;2023-03-14T06:36:07;99133.41;;;13.22
64947;BMP280;51469;52.150;4.682;2023-03-14T06:38:32;99146.34;;;13.09
64947;BMP280;51469;52.150;4.682;2023-03-14T06:41:06;99149.22;;;13.34
64947;BMP280;51469;52.150;4.682;2023-03-14T06:43:31;99161.41;;;13.49
64947;BMP280;51469;52.150;4.682;2023-03-14T06:45:57;99167.25;;;13.51
64947;BMP280;51469;52.150;4.682;2023-03-14T06:48:22;99171.34;;;13.59
64947;BMP280;51469;52.150;4.682;2023-03-14T06:50:48;99177.50;;;13.63
64947;BMP280;51469;52.150;4.682;2023-03-14T06:53:14;99172.13;;;13.59
64947;BMP280;51469;52.150;4.682;2023-03-14T06:55:39;99179.97;;;13.61
64947;BMP280;51469;52.150;4.682;2023-03-14T06:58:04;99195.78;;;13.57
64947;BMP280;51469;52.150;4.682;2023-03-14T07:00:32;99192.97;;;13.60
64947;BMP280;51469;52.150;4.682;2023-03-14T07:02:57;99204.88;;;13.41
64947;BMP280;51469;52.150;4.682;2023-03-14T07:05:22;99231.28;;;13.55
64947;BMP280;51469;52.150;4.682;2023-03-14T07:07:48;99245.66;;;13.46
64947;BMP280;51469;52.150;4.682;2023-03-14T07:10:13;99255.41;;;13.19
64947;BMP280;51469;52.150;4.682;2023-03-14T07:12:38;99262.91;;;13.34
64947;BMP280;51469;52.150;4.682;2023-03-14T07:15:04;99276.66;;;13.18
64947;BMP280;51469;52.150;4.682;2023-03-14T07:17:30;99282.78;;;13.26
64947;BMP280;51469;52.150;4.682;2023-03-14T07:19:55;99284.09;;;13.21
64947;BMP280;51469;52.150;4.682;2023-03-14T07:22:20;99303.00;;;13.19
64947;BMP280;51469;52.150;4.682;2023-03-14T07:24:46;99298.94;;;13.24
64947;BMP280;51469;52.150;4.682;2023-03-14T07:27:11;99315.31;;;13.31
64947;BMP280;51469;52.150;4.682;2023-03-14T07:29:36;99329.41;;;13.17
64947;BMP280;51469;52.150;4.682;2023-03-14T07:32:02;99338.63;;;13.10
64947;BMP280;51469;52.150;4.682;2023-03-14T07:34:28;99350.47;;;13.07
64947;BMP280;51469;52.150;4.682;2023-03-14T07:36:53;99361.81;;;12.93
64947;BMP280;51469;52.150;4.682;2023-03-14T07:39:18;99376.03;;;13.08
64947;BMP280;51469;52.150;4.682;2023-03-14T07:41:44;99375.81;;;12.99
64947;BMP280;51469;52.150;4.682;2023-03-14T07:44:09;99396.19;;;12.66
64947;BMP280;51469;52.150;4.682;2023-03-14T07:46:34;99401.28;;;12.48
64947;BMP280;51469;52.150;4.682;2023-03-14T07:49:00;99428.72;;;12.51
64947;BMP280;51469;52.150;4.682;2023-03-14T07:51:25;99449.91;;;11.85
64947;BMP280;51469;52.150;4.682;2023-03-14T07:53:50;99451.53;;;12.06
64947;BMP280;51469;52.150;4.682;2023-03-14T07:56:16;99470.13;;;11.72
64947;BMP280;51469;52.150;4.682;2023-03-14T07:58:41;99474.09;;;11.94
64947;BMP280;51469;52.150;4.682;2023-03-14T08:01:07;99487.03;;;11.97
64947;BMP280;51469;52.150;4.682;2023-03-14T08:03:32;99489.41;;;11.95
64947;BMP280;51469;52.150;4.682;2023-03-14T08:05:58;99503.22;;;12.14
64947;BMP280;51469;52.150;4.682;2023-03-14T08:08:23;99519.09;;;11.77
64947;BMP280;51469;52.150;4.682;2023-03-14T08:10:48;99529.06;;;11.67
64947;BMP280;51469;52.150;4.682;2023-03-14T08:13:14;99536.13;;;11.68
64947;BMP280;51469;52.150;4.682;2023-03-14T08:15:39;99544.88;;;11.60
64947;BMP280;51469;52.150;4.682;2023-03-14T08:18:05;99554.81;;;11.77
64947;BMP280;51469;52.150;4.682;2023-03-14T08:20:31;99568.69;;;11.96
64947;BMP280;51469;52.150;4.682;2023-03-14T08:22:57;99576.16;;;11.96
64947;BMP280;51469;52.150;4.682;2023-03-14T08:25:23;99587.16;;;11.96
64947;BMP280;51469;52.150;4.682;2023-03-14T08:27:49;99597.84;;;11.87
64947;BMP280;51469;52.150;4.682;2023-03-14T08:32:41;99616.59;;;11.95
64947;BMP280;51469;52.150;4.682;2023-03-14T08:35:07;99628.75;;;11.68
64947;BMP280;51469;52.150;4.682;2023-03-14T08:37:33;99634.78;;;11.86
64947;BMP280;51469;52.150;4.682;2023-03-14T08:39:59;99661.03;;;11.57
64947;BMP280;51469;52.150;4.682;2023-03-14T08:42:25;99670.97;;;11.44
64947;BMP280;51469;52.150;4.682;2023-03-14T08:44:51;99680.47;;;11.73
64947;BMP280;51469;52.150;4.682;2023-03-14T08:47:17;99697.06;;;11.96
64947;BMP280;51469;52.150;4.682;2023-03-14T08:49:42;99700.25;;;11.57
64947;BMP280;51469;52.150;4.682;2023-03-14T08:52:08;99702.41;;;11.76
64947;BMP280;51469;52.150;4.682;2023-03-14T08:54:33;99728.16;;;11.89
64947;BMP280;51469;52.150;4.682;2023-03-14T08:56:59;99730.69;;;12.07
64947;BMP280;51469;52.150;4.682;2023-03-14T08:59:24;99736.72;;;11.95
64947;BMP280;51469;52.150;4.682;2023-03-14T09:04:18;99761.84;;;12.27
64947;BMP280;51469;52.150;4.682;2023-03-14T09:06:43;99752.06;;;12.26
64947;BMP280;51469;52.150;4.682;2023-03-14T09:09:09;99760.47;;;12.45
64947;BMP280;51469;52.150;4.682;2023-03-14T09:11:34;99779.00;;;12.08
64947;BMP280;51469;52.150;4.682;2023-03-14T09:14:00;99777.66;;;12.49
64947;BMP280;51469;52.150;4.682;2023-03-14T09:16:25;99781.06;;;12.87
64947;BMP280;51469;52.150;4.682;2023-03-14T09:18:51;99797.16;;;12.62
64947;BMP280;51469;52.150;4.682;2023-03-14T09:21:20;99805.91;;;13.10
64947;BMP280;51469;52.150;4.682;2023-03-14T09:23:45;99814.34;;;13.22
64947;BMP280;51469;52.150;4.682;2023-03-14T09:26:11;99838.53;;;12.81
64947;BMP280;51469;52.150;4.682;2023-03-14T09:28:36;99864.09;;;11.78
64947;BMP280;51469;52.150;4.682;2023-03-14T09:31:09;99879.34;;;11.35
64947;BMP280;51469;52.150;4.682;2023-03-14T09:33:36;99905.06;;;10.90
64947;BMP280;51469;52.150;4.682;2023-03-14T09:36:02;99913.41;;;10.62
64947;BMP280;51469;52.150;4.682;2023-03-14T09:38:28;99906.47;;;9.87
64947;BMP280;51469;52.150;4.682;2023-03-14T09:40:54;99928.38;;;10.33
64947;BMP280;51469;52.150;4.682;2023-03-14T09:43:21;99933.84;;;10.47
64947;BMP280;51469;52.150;4.682;2023-03-14T09:45:48;99928.59;;;10.94
64947;BMP280;51469;52.150;4.682;2023-03-14T09:48:20;99926.56;;;11.05
64947;BMP280;51469;52.150;4.682;2023-03-14T09:50:50;99935.88;;;11.29
64947;BMP280;51469;52.150;4.682;2023-03-14T09:53:18;99937.25;;;11.61
64947;BMP280;51469;52.150;4.682;2023-03-14T09:55:47;99943.38;;;11.83
64947;BMP280;51469;52.150;4.682;2023-03-14T09:58:16;99944.66;;;12.12
64947;BMP280;51469;52.150;4.682;2023-03-14T10:00:43;99951.44;;;12.41
64947;BMP280;51469;52.150;4.682;2023-03-14T10:05:39;99969.63;;;12.28
64947;BMP280;51469;52.150;4.682;2023-03-14T10:08:05;99979.84;;;12.31
64947;BMP280;51469;52.150;4.682;2023-03-14T10:10:31;99985.63;;;12.40
64947;BMP280;51469;52.150;4.682;2023-03-14T10:13:20;99999.97;;;12.21
64947;BMP280;51469;52.150;4.682;2023-03-14T10:15:52;100026.66;;;11.66
64947;BMP280;51469;52.150;4.682;2023-03-14T10:18:18;100038.84;;;11.65
64947;BMP280;51469;52.150;4.682;2023-03-14T10:20:46;100037.81;;;11.38
64947;BMP280;51469;52.150;4.682;2023-03-14T10:25:40;100055.81;;;11.46
64947;BMP280;51469;52.150;4.682;2023-03-14T10:28:23;100051.88;;;11.47
64947;BMP280;51469;52.150;4.682;2023-03-14T10:30:48;100074.31;;;12.00
64947;BMP280;51469;52.150;4.682;2023-03-14T10:33:21;100080.88;;;12.20
64947;BMP280;51469;52.150;4.682;2023-03-14T10:38:23;100094.25;;;12.69
64947;BMP280;51469;52.150;4.682;2023-03-14T10:40:51;100110.91;;;12.48
64947;BMP280;51469;52.150;4.682;2023-03-14T10:43:44;100120.22;;;12.64
64947;BMP280;51469;52.150;4.682;2023-03-14T10:46:15;100143.13;;;12.51
64947;BMP280;51469;52.150;4.682;2023-03-14T10:48:42;100163.72;;;12.29
64947;BMP280;51469;52.150;4.682;2023-03-14T10:53:58;100167.78;;;12.00
64947;BMP280;51469;52.150;4.682;2023-03-14T10:56:25;100180.34;;;12.08
64947;BMP280;51469;52.150;4.682;2023-03-14T10:58:54;100178.56;;;12.45
64947;BMP280;51469;52.150;4.682;2023-03-14T11:03:57;100199.00;;;12.41
64947;BMP280;51469;52.150;4.682;2023-03-14T11:06:48;100206.66;;;12.67
64947;BMP280;51469;52.150;4.682;2023-03-14T11:11:46;100220.72;;;12.83
64947;BMP280;51469;52.150;4.682;2023-03-14T11:14:24;100232.25;;;13.11
64947;BMP280;51469;52.150;4.682;2023-03-14T11:16:56;100235.00;;;13.52
64947;BMP280;51469;52.150;4.682;2023-03-14T11:25:13;100268.88;;;13.86
64947;BMP280;51469;52.150;4.682;2023-03-14T11:28:15;100286.81;;;14.01
64947;BMP280;51469;52.150;4.682;2023-03-14T11:30:41;100289.84;;;13.80
64947;BMP280;51469;52.150;4.682;2023-03-14T11:33:14;100312.13;;;14.26
64947;BMP280;51469;52.150;4.682;2023-03-14T11:36:07;100306.22;;;14.54
64947;BMP280;51469;52.150;4.682;2023-03-14T11:38:47;100302.66;;;14.80
64947;BMP280;51469;52.150;4.682;2023-03-14T11:43:55;100322.22;;;14.93
64947;BMP280;51469;52.150;4.682;2023-03-14T11:46:28;100329.41;;;14.33
64947;BMP280;51469;52.150;4.682;2023-03-14T11:51:24;100358.50;;;14.68
64947;BMP280;51469;52.150;4.682;2023-03-14T11:53:53;100352.34;;;14.83
64947;BMP280;51469;52.150;4.682;2023-03-14T11:58:58;100363.09;;;14.48
64947;BMP280;51469;52.150;4.682;2023-03-14T12:01:32;100370.81;;;14.60
64947;BMP280;51469;52.150;4.682;2023-03-14T12:04:06;100375.59;;;14.56
64947;BMP280;51469;52.150;4.682;2023-03-14T12:06:48;100384.38;;;14.47
64947;BMP280;51469;52.150;4.682;2023-03-14T12:09:16;100390.75;;;14.41
64947;BMP280;51469;52.150;4.682;2023-03-14T12:11:55;100391.97;;;14.70
64947;BMP280;51469;52.150;4.682;2023-03-14T12:14:35;100398.50;;;14.53
64947;BMP280;51469;52.150;4.682;2023-03-14T12:17:17;100402.38;;;14.59
64947;BMP280;51469;52.150;4.682;2023-03-14T12:19:43;100408.16;;;14.38
64947;BMP280;51469;52.150;4.682;2023-03-14T12:24:48;100417.94;;;14.09
64947;BMP280;51469;52.150;4.682;2023-03-14T12:27:45;100426.91;;;14.20
64947;BMP280;51469;52.150;4.682;2023-03-14T12:30:33;100433.47;;;14.63
64947;BMP280;51469;52.150;4.682;2023-03-14T12:35:46;100445.97;;;14.41
64947;BMP280;51469;52.150;4.682;2023-03-14T12:41:36;100465.34;;;14.71
64947;BMP280;51469;52.150;4.682;2023-03-14T12:46:53;100466.03;;;14.75
64947;BMP280;51469;52.150;4.682;2023-03-14T12:49:19;100475.63;;;14.67
64947;BMP280;51469;52.150;4.682;2023-03-14T12:51:44;100472.47;;;14.65
64947;BMP280;51469;52.150;4.682;2023-03-14T12:57:06;100495.28;;;14.39
64947;BMP280;51469;52.150;4.682;2023-03-14T12:59:50;100491.31;;;14.40
64947;BMP280;51469;52.150;4.682;2023-03-14T13:02:21;100506.59;;;14.52
64947;BMP280;51469;52.150;4.682;2023-03-14T13:04:51;100518.81;;;14.84
64947;BMP280;51469;52.150;4.682;2023-03-14T13:12:44;100542.19;;;14.39
64947;BMP280;51469;52.150;4.682;2023-03-14T13:15:19;100534.94;;;14.15
64947;BMP280;51469;52.150;4.682;2023-03-14T13:17:47;100540.03;;;14.57
64947;BMP280;51469;52.150;4.682;2023-03-14T13:20:22;100546.19;;;15.05
64947;BMP280;51469;52.150;4.682;2023-03-14T13:22:49;100558.72;;;15.09
64947;BMP280;51469;52.150;4.682;2023-03-14T13:25:15;100559.75;;;14.93
64947;BMP280;51469;52.150;4.682;2023-03-14T13:27:42;100565.97;;;15.00
64947;BMP280;51469;52.150;4.682;2023-03-14T13:32:42;100590.44;;;14.98
64947;BMP280;51469;52.150;4.682;2023-03-14T13:35:21;100605.41;;;14.67
64947;BMP280;51469;52.150;4.682;2023-03-14T13:37:48;100597.28;;;15.20
64947;BMP280;51469;52.150;4.682;2023-03-14T13:40:30;100605.47;;;15.31
64947;BMP280;51469;52.150;4.682;2023-03-14T13:43:01;100616.81;;;15.36
64947;BMP280;51469;52.150;4.682;2023-03-14T13:45:27;100610.00;;;15.18
64947;BMP280;51469;52.150;4.682;2023-03-14T13:47:52;100621.81;;;15.18
64947;BMP280;51469;52.150;4.682;2023-03-14T13:50:18;100621.03;;;15.18
64947;BMP280;51469;52.150;4.682;2023-03-14T13:52:43;100637.53;;;15.21
64947;BMP280;51469;52.150;4.682;2023-03-14T13:55:18;100626.47;;;14.91
64947;BMP280;51469;52.150;4.682;2023-03-14T13:57:49;100628.66;;;14.69
64947;BMP280;51469;52.150;4.682;2023-03-14T14:00:22;100645.25;;;14.66
64947;BMP280;51469;52.150;4.682;2023-03-14T14:02:55;100647.88;;;14.36
64947;BMP280;51469;52.150;4.682;2023-03-14T14:05:22;100661.22;;;14.41
64947;BMP280;51469;52.150;4.682;2023-03-14T14:07:48;100656.53;;;14.38
64947;BMP280;51469;52.150;4.682;2023-03-14T14:10:15;100674.00;;;14.21
64947;BMP280;51469;52.150;4.682;2023-03-14T14:12:54;100663.09;;;14.00
64947;BMP280;51469;52.150;4.682;2023-03-14T14:15:26;100676.53;;;13.91
64947;BMP280;51469;52.150;4.682;2023-03-14T14:17:54;100689.13;;;13.99
64947;BMP280;51469;52.150;4.682;2023-03-14T14:20:37;100701.16;;;14.22
64947;BMP280;51469;52.150;4.682;2023-03-14T14:23:06;100712.19;;;14.26
64947;BMP280;51469;52.150;4.682;2023-03-14T14:25:34;100714.63;;;14.17
64947;BMP280;51469;52.150;4.682;2023-03-14T14:28:34;100722.06;;;14.27
64947;BMP280;51469;52.150;4.682;2023-03-14T14:31:21;100720.25;;;13.92
64947;BMP280;51469;52.150;4.682;2023-03-14T14:34:00;100734.13;;;13.75
64947;BMP280;51469;52.150;4.682;2023-03-14T14:38:59;100727.78;;;13.81
64947;BMP280;51469;52.150;4.682;2023-03-14T14:41:29;100744.22;;;14.06
64947;BMP280;51469;52.150;4.682;2023-03-14T14:43:55;100752.47;;;14.13
64947;BMP280;51469;52.150;4.682;2023-03-14T14:46:21;100754.47;;;14.09
64947;BMP280;51469;52.150;4.682;2023-03-14T14:48:47;100750.66;;;13.82
64947;BMP280;51469;52.150;4.682;2023-03-14T14:51:25;100752.59;;;13.92
64947;BMP280;51469;52.150;4.682;2023-03-14T14:54:02;100763.94;;;14.08
64947;BMP280;51469;52.150;4.682;2023-03-14T14:56:28;100760.88;;;13.81
64947;BMP280;51469;52.150;4.682;2023-03-14T14:59:01;100768.75;;;13.83
64947;BMP280;51469;52.150;4.682;2023-03-14T15:01:39;100781.34;;;13.91
64947;BMP280;51469;52.150;4.682;2023-03-14T15:04:12;100789.25;;;13.89
64947;BMP280;51469;52.150;4.682;2023-03-14T15:06:39;100786.06;;;13.94
64947;BMP280;51469;52.150;4.682;2023-03-14T15:09:05;100795.59;;;13.72
64947;BMP280;51469;52.150;4.682;2023-03-14T15:11:31;100803.38;;;13.98
64947;BMP280;51469;52.150;4.682;2023-03-14T15:13:56;100804.19;;;13.95
64947;BMP280;51469;52.150;4.682;2023-03-14T15:16:26;100816.38;;;14.01
64947;BMP280;51469;52.150;4.682;2023-03-14T15:18:54;100802.66;;;13.69